Machynlleth, United Kingdom
Current Conditions -  °F | °C
As of 8:50 PM on Saturday 22 Nov 2014 (Local Time) from EGOS Reporting Station
Broken Clouds Broken Clouds  
Wind Chill: 46°   Ceiling: 18000
Heat Index: 48°   Visibility: 6mi
Dew Point: 46°   Wind: 6mph
Humidity: 93%   Direction: 270°W
Pressure: 29.94"   Gusts: NA
Location:  52.59°N, 3.85°W
Report Text: EGOS 222050Z AUTO 27005KT 9999 FEW150/// BKN180/// 09/08 Q1014
Loading
Personal Weather Stations






























Interactive Weather Map New forecast layout! Learn more

10-Day Weather Forecast

Advertisements
Track Severe Weather on mobile